Seguin, TX

8:42 AM CDT on September 16, 2014 (GMT -0500)
College Heights | Change Station
CLOSE
Current Station
Personal Weather Station
Location: Seguin, TX
Elevation: 554 ft
Nearby Weather Stations

Elev 554 ft 29.58 °N, 97.96 °W | Updated 50 seconds ago

Clear
Clear
78.3 °F
Feels Like 81 °F
N
0.0
Wind Variable Wind from North
Gusts 1.0 mph

Today
High -- | Low -- °F
--% Chance of Precip.
Yesterday
High -- | Low -- °F
Precip. -- in
7:17 AM 7:35 PM
Last Quarter, 45% visible
Pressure 30.05 in
Visibility 6.0 miles
Clouds Clear
Heat Index 81 °F
Dew Point 74 °F
Humidity 86%
Rainfall 0.00 in
Snow Depth Not available.
UV 0.6 out of 12
Pollen 9.80 out of 12
Ozone Good
PM2.5 Moderate
Flu Activity Not available.
METAR KBAZ 161251Z 04006KT 6SM BR CLR 24/22 A3007 RMK AO2 SLP175 T02390222

More Conditions Fewer Conditions

Pressure 30.05 in
Visibility 6.0 miles
Clouds Clear
Heat Index 81 °F
Dew Point 74 °F
Humidity 86%
Rainfall 0.00 in
Snow Depth Not available.
UV 0.6 out of 12
Pollen 9.80 out of 12
Ozone Good
PM2.5 Moderate
Flu Activity Not available.
METAR KBAZ 161251Z 04006KT 6SM BR CLR 24/22 A3007 RMK AO2 SLP175 T02390222

More Conditions Fewer Conditions

10-Day Weather Forecast

Almanac

Astronomy

Sep. 16, 2014 Rise Set
Actual Time 7:17 AM CDT 7:35 PM CDT
Civil Twilight 6:53 AM CDT 7:59 PM CDT
Nautical Twilight 6:25 AM CDT 8:27 PM CDT
Astronomical Twilight 5:57 AM CDT 8:55 PM CDT
Moon 12:47 AM CDT 2:41 PM CDT
Length of Visible Light 13h 06m
Length of Day
12h 18m
Tomorrow will be 1m 46s shorter.
Last Quarter, 45% of the Moon is Illuminated
Today
Last Quarter
Sep 24
New
Oct 1
First Quarter
Oct 8
Full
Oct 15
Last Quarter

Today's Extremes

State Highs State Lows

Community

WunderPhotos

Upload Photos

1,753,774 photos uploaded!

Nearby

Air Quality

  Air Quality AQ Index Pollutant
Yesterday Moderate
PM2.5
Yesterday Good
OZONE
Current Moderate
PM2.5
Current Good
OZONE
Tuesday Good
OZONE
Tuesday Good
PM10
Wednesday Good
OZONE
Wednesday Good
PM10
Thursday Good
PM10
Thursday Good
OZONE

Snow Depth

Station Depth Elevation
No new snow has been reported.

Earthquake Activity

City Distance Mag. Time & Date
No recent earthquake activity has been reported nearby.
Minimum magnitude displayed is 2.5.

Coastal Water Temperatures

Place Temperature
No Stations Reporting

Nearby Weather Stations